Time;durP1;ratioP1;P1;durP2;ratioP2;P2;SDS_P1;SDS_P2;PMS_P1;PMS_P2;Temp;Humidity;BMP_temperature;BMP_pressure;BME280_temperature;BME280_humidity;BME280_pressure;Samples;Min_cycle;Max_cycle;Signal;HPM_P1;HPM_P2
2022/07/06 00:01:07;;;;;;;1.90;1.70;;;;;;;;;;5035494;28;20207;-66
2022/07/06 00:03:33;;;;;;;2.00;1.70;;;;;;;;;;5036848;28;20563;-66
2022/07/06 00:05:59;;;;;;;4.60;2.23;;;;;;;;;;5034831;28;20182;-64
2022/07/06 00:08:25;;;;;;;4.53;2.10;;;;;;;;;;5034826;28;20703;-66
2022/07/06 00:10:51;;;;;;;4.17;2.10;;;;;;;;;;5034800;28;20193;-65
2022/07/06 00:13:17;;;;;;;3.23;2.10;;;;;;;;;;5034868;28;20199;-65
2022/07/06 00:15:43;;;;;;;2.33;1.90;;;;;;;;;;5034651;28;20183;-65
2022/07/06 00:18:09;;;;;;;3.43;1.77;;;;;;;;;;5033431;28;20547;-66
2022/07/06 00:20:35;;;;;;;2.50;1.87;;;;;;;;;;5033121;28;20203;-64
2022/07/06 00:23:01;;;;;;;4.80;1.90;;;;;;;;;;5034778;28;20198;-63
2022/07/06 00:25:27;;;;;;;2.60;2.23;;;;;;;;;;5034699;28;20172;-64
2022/07/06 00:27:53;;;;;;;4.53;2.30;;;;;;;;;;5034669;28;20175;-64
2022/07/06 00:30:19;;;;;;;3.93;1.87;;;;;;;;;;5034485;28;20216;-64
2022/07/06 00:32:45;;;;;;;2.90;2.27;;;;;;;;;;5033383;28;20207;-65
2022/07/06 00:35:10;;;;;;;2.80;2.60;;;;;;;;;;5033929;28;20651;-65
2022/07/06 00:37:36;;;;;;;4.40;3.37;;;;;;;;;;5034825;28;20175;-64
2022/07/06 00:40:02;;;;;;;4.87;2.50;;;;;;;;;;5032645;28;20582;-66
2022/07/06 00:42:28;;;;;;;3.67;2.13;;;;;;;;;;5034354;28;20689;-65
2022/07/06 00:44:54;;;;;;;2.50;2.30;;;;;;;;;;5034470;28;20171;-65
2022/07/06 00:47:20;;;;;;;2.83;2.53;;;;;;;;;;5034249;28;20172;-65
2022/07/06 00:52:31;;;;;;;2.30;2.10;;;;;;;;;;5034316;28;20229;-66
2022/07/06 00:54:58;;;;;;;3.90;2.47;;;;;;;;;;5016753;28;20181;-66
2022/07/06 00:57:24;;;;;;;4.23;2.50;;;;;;;;;;5033835;28;20687;-65
2022/07/06 00:59:50;;;;;;;2.83;2.60;;;;;;;;;;5033911;28;20201;-64
2022/07/06 01:02:16;;;;;;;4.30;2.70;;;;;;;;;;5016253;28;20195;-64
2022/07/06 01:04:42;;;;;;;5.03;2.80;;;;;;;;;;5033841;28;20206;-66
2022/07/06 01:07:08;;;;;;;4.47;2.83;;;;;;;;;;5034018;28;20187;-65
2022/07/06 01:09:33;;;;;;;3.30;2.70;;;;;;;;;;5034129;28;20568;-66
2022/07/06 01:11:59;;;;;;;5.13;3.07;;;;;;;;;;5033781;28;20195;-65
2022/07/06 01:14:26;;;;;;;5.27;2.90;;;;;;;;;;5033492;28;20183;-65
2022/07/06 01:16:52;;;;;;;3.23;2.73;;;;;;;;;;5033723;28;20532;-65
2022/07/06 01:19:17;;;;;;;3.87;2.93;;;;;;;;;;5037273;28;20237;-65
2022/07/06 01:21:43;;;;;;;3.53;2.87;;;;;;;;;;5037931;28;20667;-65
2022/07/06 01:24:09;;;;;;;3.60;3.30;;;;;;;;;;5037591;28;20639;-64
2022/07/06 01:26:35;;;;;;;3.00;2.70;;;;;;;;;;5037313;28;20674;-65
2022/07/06 01:29:01;;;;;;;6.03;2.73;;;;;;;;;;5019773;28;20221;-65
2022/07/06 01:31:27;;;;;;;5.13;3.37;;;;;;;;;;5037685;28;20183;-65
2022/07/06 01:33:55;;;;;;;3.47;2.73;;;;;;;;;;5019390;28;20210;-65
2022/07/06 01:36:21;;;;;;;4.53;2.70;;;;;;;;;;5037077;28;20190;-66
2022/07/06 01:38:48;;;;;;;4.80;3.40;;;;;;;;;;5037432;28;20194;-65
2022/07/06 01:41:14;;;;;;;3.53;2.77;;;;;;;;;;5037641;28;20203;-65
2022/07/06 01:43:40;;;;;;;6.40;3.20;;;;;;;;;;5037184;28;20274;-65
2022/07/06 01:46:06;;;;;;;3.00;2.70;;;;;;;;;;5037162;28;20282;-65
2022/07/06 01:48:32;;;;;;;2.87;2.60;;;;;;;;;;5037085;28;20557;-65
2022/07/06 01:50:58;;;;;;;3.30;2.70;;;;;;;;;;5037192;28;20187;-64
2022/07/06 01:53:24;;;;;;;5.00;2.97;;;;;;;;;;5030209;28;20762;-66
2022/07/06 01:55:50;;;;;;;3.53;2.67;;;;;;;;;;5036704;28;20583;-65
2022/07/06 01:58:16;;;;;;;3.93;2.87;;;;;;;;;;5036685;28;20549;-67
2022/07/06 02:00:42;;;;;;;5.23;2.90;;;;;;;;;;5036722;28;20245;-65
2022/07/06 02:03:08;;;;;;;2.63;2.43;;;;;;;;;;5036482;28;20202;-65
2022/07/06 02:05:34;;;;;;;3.17;2.83;;;;;;;;;;5035380;28;20171;-67
2022/07/06 02:08:00;;;;;;;4.33;2.80;;;;;;;;;;5036901;28;20210;-64
2022/07/06 02:10:26;;;;;;;3.53;2.93;;;;;;;;;;5036486;28;20179;-68
2022/07/06 02:12:52;;;;;;;3.07;2.50;;;;;;;;;;5036175;28;20237;-66
2022/07/06 02:15:17;;;;;;;4.40;3.23;;;;;;;;;;5035305;28;20207;-65
2022/07/06 02:17:43;;;;;;;4.30;2.90;;;;;;;;;;5035088;28;20183;-66
2022/07/06 02:20:10;;;;;;;3.80;2.83;;;;;;;;;;5036833;28;20202;-66
2022/07/06 02:22:35;;;;;;;3.47;3.03;;;;;;;;;;5036477;28;20187;-65
2022/07/06 02:25:02;;;;;;;2.60;2.40;;;;;;;;;;5035933;28;25109;-66
2022/07/06 02:27:28;;;;;;;3.10;2.80;;;;;;;;;;5036412;28;20179;-66
2022/07/06 02:29:53;;;;;;;3.63;2.73;;;;;;;;;;5036204;28;20739;-64
2022/07/06 02:32:19;;;;;;;3.07;2.70;;;;;;;;;;5036471;28;20198;-65
2022/07/06 02:34:45;;;;;;;3.40;2.77;;;;;;;;;;5036507;28;20206;-64
2022/07/06 02:37:11;;;;;;;5.10;3.13;;;;;;;;;;5035338;28;20204;-65
2022/07/06 02:39:37;;;;;;;3.20;2.90;;;;;;;;;;5035949;28;20245;-63
2022/07/06 02:42:03;;;;;;;4.93;2.93;;;;;;;;;;5034724;28;20654;-65
2022/07/06 02:44:29;;;;;;;3.73;3.17;;;;;;;;;;5034990;28;20533;-66
2022/07/06 02:46:55;;;;;;;5.90;3.03;;;;;;;;;;5036189;28;20182;-66
2022/07/06 02:49:21;;;;;;;3.73;2.63;;;;;;;;;;5035786;28;20231;-65
2022/07/06 02:51:47;;;;;;;4.00;3.00;;;;;;;;;;5035592;28;20175;-67
2022/07/06 02:54:13;;;;;;;3.17;2.70;;;;;;;;;;5035627;28;20698;-66
2022/07/06 02:56:39;;;;;;;7.23;3.20;;;;;;;;;;5035550;28;20706;-64
2022/07/06 02:59:05;;;;;;;5.00;3.10;;;;;;;;;;5035525;28;20211;-65
2022/07/06 03:01:31;;;;;;;5.60;3.20;;;;;;;;;;5017717;28;20203;-64
2022/07/06 03:03:57;;;;;;;6.40;3.80;;;;;;;;;;5035311;28;20199;-65
2022/07/06 03:06:23;;;;;;;4.13;2.90;;;;;;;;;;5017772;28;20189;-65
2022/07/06 03:08:49;;;;;;;3.53;3.10;;;;;;;;;;5017549;28;20175;-65
2022/07/06 03:11:15;;;;;;;3.20;2.90;;;;;;;;;;5035122;28;20636;-65
2022/07/06 03:13:41;;;;;;;6.63;3.20;;;;;;;;;;5017273;28;20206;-65
2022/07/06 03:16:07;;;;;;;5.93;3.50;;;;;;;;;;5035057;28;20179;-65
2022/07/06 03:18:33;;;;;;;3.77;3.47;;;;;;;;;;5035201;28;20270;-65
2022/07/06 03:20:59;;;;;;;5.03;4.17;;;;;;;;;;5035199;28;20203;-65
2022/07/06 03:23:25;;;;;;;6.07;3.60;;;;;;;;;;5035074;28;20202;-65
2022/07/06 03:25:51;;;;;;;5.37;3.87;;;;;;;;;;5035412;28;20175;-66
2022/07/06 03:28:17;;;;;;;3.67;3.30;;;;;;;;;;5034912;28;20203;-65
2022/07/06 03:30:43;;;;;;;6.90;3.97;;;;;;;;;;5035198;28;20597;-66
2022/07/06 03:33:09;;;;;;;4.97;3.80;;;;;;;;;;5017009;28;20293;-65
2022/07/06 03:35:35;;;;;;;4.30;3.50;;;;;;;;;;5034663;28;20691;-63
2022/07/06 03:38:02;;;;;;;3.67;3.30;;;;;;;;;;5034765;28;20183;-65
2022/07/06 03:40:28;;;;;;;5.03;4.07;;;;;;;;;;5034271;28;20250;-65
2022/07/06 03:42:54;;;;;;;7.73;4.13;;;;;;;;;;5034579;28;20701;-65
2022/07/06 03:45:20;;;;;;;6.03;3.97;;;;;;;;;;5035135;28;20215;-65
2022/07/06 03:47:46;;;;;;;6.77;3.60;;;;;;;;;;5017234;28;20182;-65
2022/07/06 03:50:12;;;;;;;6.50;4.47;;;;;;;;;;5035349;28;20194;-64
2022/07/06 03:52:39;;;;;;;4.20;3.80;;;;;;;;;;5035305;28;20222;-66
2022/07/06 03:55:07;;;;;;;6.70;4.13;;;;;;;;;;5036526;28;20186;-65
2022/07/06 03:57:33;;;;;;;6.13;3.90;;;;;;;;;;5043413;28;20206;-65
2022/07/06 03:59:59;;;;;;;7.50;3.80;;;;;;;;;;5044646;28;20271;-65
2022/07/06 04:02:25;;;;;;;6.17;4.20;;;;;;;;;;5024183;28;20199;-65
2022/07/06 04:04:51;;;;;;;4.77;3.40;;;;;;;;;;5042284;28;20182;-65
2022/07/06 04:07:17;;;;;;;4.37;3.60;;;;;;;;;;5024715;28;20210;-65
2022/07/06 04:09:42;;;;;;;5.07;3.60;;;;;;;;;;5042856;28;20171;-65
2022/07/06 04:12:08;;;;;;;6.07;3.70;;;;;;;;;;5042960;28;20198;-65
2022/07/06 04:14:34;;;;;;;4.73;3.70;;;;;;;;;;5043423;28;20202;-65
2022/07/06 04:17:51;;;;;;;5.97;3.43;;;;;;;;;;5022398;28;20187;-65
2022/07/06 04:19:46;;;;;;;4.93;3.63;;;;;;;;;;5038533;28;20195;-64
2022/07/06 04:22:12;;;;;;;5.47;3.37;;;;;;;;;;5048318;23;20228;-67
2022/07/06 04:24:38;;;;;;;4.20;3.80;;;;;;;;;;5055843;28;20211;-67
2022/07/06 04:27:05;;;;;;;3.97;3.53;;;;;;;;;;5055903;28;20184;-68
2022/07/06 04:29:31;;;;;;;4.53;3.50;;;;;;;;;;5055927;28;20228;-68
2022/07/06 04:31:56;;;;;;;5.03;3.70;;;;;;;;;;5073846;28;20197;-69
2022/07/06 04:34:22;;;;;;;5.70;3.60;;;;;;;;;;5073937;28;20181;-68
2022/07/06 04:36:48;;;;;;;5.30;3.80;;;;;;;;;;5055909;28;20186;-68
2022/07/06 04:39:14;;;;;;;5.83;3.53;;;;;;;;;;5055656;28;20658;-68
2022/07/06 04:41:40;;;;;;;5.17;3.60;;;;;;;;;;5073771;28;20242;-67
2022/07/06 04:44:06;;;;;;;5.43;3.70;;;;;;;;;;5055757;28;20174;-68
2022/07/06 04:46:32;;;;;;;5.30;3.37;;;;;;;;;;5074045;28;20178;-67
2022/07/06 04:48:58;;;;;;;4.10;3.30;;;;;;;;;;5073630;28;20262;-67
2022/07/06 04:51:24;;;;;;;9.47;3.70;;;;;;;;;;5073193;28;20181;-68
2022/07/06 04:53:50;;;;;;;4.20;3.07;;;;;;;;;;5074203;28;20182;-67
2022/07/06 04:56:16;;;;;;;4.20;3.23;;;;;;;;;;5055553;28;20209;-67
2022/07/06 04:58:42;;;;;;;4.60;3.30;;;;;;;;;;5055601;28;20184;-68
2022/07/06 05:01:08;;;;;;;4.73;3.00;;;;;;;;;;5074095;28;20683;-68
2022/07/06 05:03:40;;;;;;;4.37;3.00;;;;;;;;;;5073323;28;20219;-68
2022/07/06 05:06:06;;;;;;;4.27;3.10;;;;;;;;;;5055561;28;20188;-69
2022/07/06 05:08:32;;;;;;;4.93;2.87;;;;;;;;;;5073437;28;20174;-68
2022/07/06 05:10:58;;;;;;;5.30;3.00;;;;;;;;;;5055596;28;20707;-68
2022/07/06 05:13:24;;;;;;;5.63;3.17;;;;;;;;;;5073606;28;20237;-68
2022/07/06 05:15:50;;;;;;;3.33;3.00;;;;;;;;;;5073436;28;20609;-68
2022/07/06 05:18:16;;;;;;;3.17;2.87;;;;;;;;;;5055417;28;20187;-68
2022/07/06 05:20:42;;;;;;;4.57;3.40;;;;;;;;;;5073339;28;20197;-68
2022/07/06 05:23:08;;;;;;;5.90;3.30;;;;;;;;;;5073046;28;20224;-69
2022/07/06 05:25:35;;;;;;;4.73;2.90;;;;;;;;;;5074058;28;20212;-66
2022/07/06 05:28:01;;;;;;;6.77;3.00;;;;;;;;;;5055243;28;20646;-67
2022/07/06 05:30:27;;;;;;;6.20;3.03;;;;;;;;;;5073380;28;20174;-67
2022/07/06 05:32:53;;;;;;;5.23;3.23;;;;;;;;;;5073142;28;20617;-66
2022/07/06 05:35:19;;;;;;;4.77;2.93;;;;;;;;;;5073449;28;20227;-66
2022/07/06 05:37:45;;;;;;;5.43;3.20;;;;;;;;;;5073421;28;20189;-66
2022/07/06 05:40:11;;;;;;;4.93;3.00;;;;;;;;;;5073317;28;20280;-66
2022/07/06 05:42:37;;;;;;;7.40;2.70;;;;;;;;;;5073079;28;20200;-68
2022/07/06 05:45:04;;;;;;;3.40;2.70;;;;;;;;;;5073250;28;20253;-68
2022/07/06 05:50:15;;;;;;;5.73;3.10;;;;;;;;;;5073722;28;20699;-68
2022/07/06 05:52:42;;;;;;;9.47;3.00;;;;;;;;;;5055353;28;20260;-68
2022/07/06 05:55:08;;;;;;;7.47;2.77;;;;;;;;;;5055124;28;20242;-68
2022/07/06 05:57:35;;;;;;;3.20;2.90;;;;;;;;;;5073159;28;20178;-67
2022/07/06 06:00:01;;;;;;;5.73;3.13;;;;;;;;;;5073010;28;20174;-69
2022/07/06 06:02:27;;;;;;;5.63;2.87;;;;;;;;;;5054871;28;20201;-69
2022/07/06 06:04:53;;;;;;;21.20;8.10;;;;;;;;;;5057675;28;20327;-67
2022/07/06 06:07:19;;;;;;;5.33;3.00;;;;;;;;;;5058459;28;20711;-68
2022/07/06 06:09:45;;;;;;;8.40;4.10;;;;;;;;;;5076026;28;20173;-68
2022/07/06 06:12:11;;;;;;;16.87;9.00;;;;;;;;;;5076019;28;20201;-67
2022/07/06 06:14:37;;;;;;;5.67;4.10;;;;;;;;;;5076536;28;20178;-68
2022/07/06 06:17:08;;;;;;;4.80;3.67;;;;;;;;;;5075868;28;20185;-68
2022/07/06 06:19:36;;;;;;;4.63;2.63;;;;;;;;;;5076059;28;20212;-68
2022/07/06 06:22:02;;;;;;;4.10;3.13;;;;;;;;;;5075748;28;20220;-69
2022/07/06 06:24:28;;;;;;;5.07;2.47;;;;;;;;;;5075843;28;20174;-67
2022/07/06 06:26:54;;;;;;;6.50;2.60;;;;;;;;;;5076070;28;20201;-67
2022/07/06 06:29:20;;;;;;;4.90;2.37;;;;;;;;;;5057831;28;20219;-67
2022/07/06 06:31:46;;;;;;;2.77;2.30;;;;;;;;;;5075797;28;20201;-67
2022/07/06 06:34:12;;;;;;;3.20;2.40;;;;;;;;;;5057736;28;20174;-67
2022/07/06 06:36:38;;;;;;;3.80;2.50;;;;;;;;;;5057652;28;20264;-67
2022/07/06 06:39:03;;;;;;;4.53;2.70;;;;;;;;;;5075827;28;20319;-67
2022/07/06 06:41:29;;;;;;;2.60;2.07;;;;;;;;;;5075477;28;20231;-67
2022/07/06 06:43:55;;;;;;;2.57;2.13;;;;;;;;;;5075485;28;20181;-68
2022/07/06 06:46:21;;;;;;;2.27;2.07;;;;;;;;;;5075718;28;20245;-66
2022/07/06 06:48:47;;;;;;;2.80;2.00;;;;;;;;;;5075419;28;20205;-65
2022/07/06 06:51:13;;;;;;;3.53;2.00;;;;;;;;;;5075717;28;20534;-66
2022/07/06 06:53:39;;;;;;;6.20;2.20;;;;;;;;;;5075611;28;20185;-67
2022/07/06 06:56:05;;;;;;;2.00;1.73;;;;;;;;;;5057397;28;20232;-67
2022/07/06 06:58:31;;;;;;;4.73;2.03;;;;;;;;;;5057362;28;20212;-67
2022/07/06 07:00:57;;;;;;;3.60;1.80;;;;;;;;;;5075093;28;20205;-69
2022/07/06 07:03:23;;;;;;;4.20;2.07;;;;;;;;;;5075032;28;20281;-68
2022/07/06 07:05:49;;;;;;;3.37;2.13;;;;;;;;;;5057108;28;20222;-68
2022/07/06 07:08:15;;;;;;;2.13;1.50;;;;;;;;;;5075224;28;20170;-67
2022/07/06 07:10:41;;;;;;;4.13;1.80;;;;;;;;;;5075340;28;20564;-68
2022/07/06 07:13:07;;;;;;;3.00;1.60;;;;;;;;;;5074695;28;20220;-67
2022/07/06 07:15:33;;;;;;;2.60;1.90;;;;;;;;;;5055873;28;20185;-67
2022/07/06 07:17:59;;;;;;;5.03;2.07;;;;;;;;;;5074899;28;20185;-65
2022/07/06 07:20:25;;;;;;;2.70;1.80;;;;;;;;;;5056842;28;20254;-68
2022/07/06 07:22:51;;;;;;;6.80;1.97;;;;;;;;;;5074436;28;20240;-65
2022/07/06 07:25:17;;;;;;;3.30;1.83;;;;;;;;;;5056728;28;20213;-66
2022/07/06 07:27:43;;;;;;;5.07;1.70;;;;;;;;;;5074762;28;20189;-65
2022/07/06 07:30:09;;;;;;;2.20;1.60;;;;;;;;;;5074561;28;20177;-62
2022/07/06 07:32:35;;;;;;;3.33;1.90;;;;;;;;;;5056650;28;20225;-64
2022/07/06 07:35:02;;;;;;;2.43;1.50;;;;;;;;;;5056656;28;20178;-64
2022/07/06 07:37:28;;;;;;;8.33;1.57;;;;;;;;;;5056465;28;20174;-66
2022/07/06 07:39:54;;;;;;;2.27;1.60;;;;;;;;;;5074374;28;20174;-65
2022/07/06 07:42:20;;;;;;;4.57;1.27;;;;;;;;;;5074467;28;20285;-65
2022/07/06 07:44:46;;;;;;;4.33;1.90;;;;;;;;;;5056646;28;20181;-66
2022/07/06 07:47:12;;;;;;;5.00;1.30;;;;;;;;;;5056384;28;20218;-68
2022/07/06 07:49:38;;;;;;;2.60;1.30;;;;;;;;;;5074463;28;20634;-67
2022/07/06 07:52:04;;;;;;;3.23;1.50;;;;;;;;;;5074264;28;20209;-67
2022/07/06 07:54:30;;;;;;;2.47;1.40;;;;;;;;;;5074436;28;20294;-67
2022/07/06 07:56:56;;;;;;;3.67;1.60;;;;;;;;;;5074438;28;20259;-66
2022/07/06 07:59:22;;;;;;;1.30;1.20;;;;;;;;;;5073937;28;20549;-68
2022/07/06 08:01:48;;;;;;;3.73;1.40;;;;;;;;;;5074140;28;20213;-68
2022/07/06 08:04:14;;;;;;;2.47;1.30;;;;;;;;;;5056039;28;20247;-65
2022/07/06 08:06:40;;;;;;;1.63;1.50;;;;;;;;;;5055968;28;20178;-65
2022/07/06 08:09:07;;;;;;;1.83;1.30;;;;;;;;;;5056105;28;20684;-66
2022/07/06 08:11:36;;;;;;;1.50;1.30;;;;;;;;;;5055835;28;20197;-67
2022/07/06 08:14:02;;;;;;;2.20;1.40;;;;;;;;;;5055847;28;20190;-67
2022/07/06 08:16:28;;;;;;;1.97;1.40;;;;;;;;;;5073904;28;20174;-67
2022/07/06 08:18:54;;;;;;;1.40;1.23;;;;;;;;;;5073846;28;20228;-67
2022/07/06 08:21:20;;;;;;;2.97;1.33;;;;;;;;;;5073542;28;20205;-66
2022/07/06 08:23:46;;;;;;;1.70;1.23;;;;;;;;;;5056105;28;20223;-66
2022/07/06 08:26:12;;;;;;;2.00;1.20;;;;;;;;;;5055319;28;20209;-67
2022/07/06 08:28:38;;;;;;;4.83;1.40;;;;;;;;;;5073870;28;20609;-67
2022/07/06 08:31:04;;;;;;;3.43;1.30;;;;;;;;;;5073875;28;20205;-67
2022/07/06 08:33:30;;;;;;;2.07;1.20;;;;;;;;;;5073481;28;20558;-66
2022/07/06 08:35:56;;;;;;;1.23;1.07;;;;;;;;;;5073847;28;20184;-66
2022/07/06 08:38:22;;;;;;;3.13;1.33;;;;;;;;;;5074341;28;20180;-65
2022/07/06 08:40:49;;;;;;;4.77;1.30;;;;;;;;;;5055582;28;20290;-66
2022/07/06 08:43:16;;;;;;;2.33;1.37;;;;;;;;;;5073606;28;20194;-67
2022/07/06 08:45:46;;;;;;;3.23;1.53;;;;;;;;;;5073332;28;20174;-66
2022/07/06 08:48:12;;;;;;;3.70;1.47;;;;;;;;;;5073280;28;20260;-67
2022/07/06 08:50:38;;;;;;;1.27;1.17;;;;;;;;;;5073419;28;20211;-68
2022/07/06 08:53:05;;;;;;;3.17;1.30;;;;;;;;;;5055075;28;20205;-67
2022/07/06 08:55:31;;;;;;;2.07;1.10;;;;;;;;;;5055111;28;20600;-66
2022/07/06 08:57:57;;;;;;;2.10;1.30;;;;;;;;;;5055280;28;20604;-67
2022/07/06 09:00:24;;;;;;;1.60;1.47;;;;;;;;;;5055161;28;20648;-65
2022/07/06 09:02:51;;;;;;;1.37;1.17;;;;;;;;;;5073310;28;20201;-67
2022/07/06 09:05:17;;;;;;;2.30;1.30;;;;;;;;;;5055197;28;20227;-68
2022/07/06 09:07:46;;;;;;;1.43;1.00;;;;;;;;;;5054998;28;20177;-67
2022/07/06 09:10:12;;;;;;;2.03;1.20;;;;;;;;;;5073200;28;20303;-67
2022/07/06 09:12:38;;;;;;;1.40;1.03;;;;;;;;;;5072916;28;20193;-68
2022/07/06 09:15:04;;;;;;;2.17;1.30;;;;;;;;;;5073212;28;20173;-66
2022/07/06 09:17:30;;;;;;;4.10;1.47;;;;;;;;;;5072870;28;20178;-66
2022/07/06 09:19:57;;;;;;;1.57;1.10;;;;;;;;;;5072756;28;20227;-67
2022/07/06 09:22:27;;;;;;;3.03;1.30;;;;;;;;;;5072739;28;20670;-67
2022/07/06 09:24:53;;;;;;;1.93;1.30;;;;;;;;;;5054995;28;20178;-68
2022/07/06 09:27:19;;;;;;;2.43;1.10;;;;;;;;;;5072613;28;20177;-66
2022/07/06 09:29:45;;;;;;;1.93;1.20;;;;;;;;;;5054746;28;20177;-66
2022/07/06 09:32:11;;;;;;;1.53;1.23;;;;;;;;;;5072609;28;20773;-66
2022/07/06 09:34:41;;;;;;;1.00;1.00;;;;;;;;;;5072674;28;20214;-66
2022/07/06 09:37:07;;;;;;;2.00;1.03;;;;;;;;;;5072766;28;20261;-66
2022/07/06 09:39:33;;;;;;;1.20;1.10;;;;;;;;;;5074936;28;20256;-67
2022/07/06 09:42:00;;;;;;;1.17;1.10;;;;;;;;;;5076261;28;20241;-66
2022/07/06 09:44:27;;;;;;;1.50;1.10;;;;;;;;;;5058483;28;20177;-66
2022/07/06 09:46:55;;;;;;;1.43;1.30;;;;;;;;;;5076949;28;20198;-67
2022/07/06 09:49:22;;;;;;;1.87;1.20;;;;;;;;;;5058118;28;20181;-66
2022/07/06 09:51:49;;;;;;;2.80;1.30;;;;;;;;;;5076082;28;20205;-67
2022/07/06 09:54:16;;;;;;;3.30;1.37;;;;;;;;;;5076602;28;20181;-66
2022/07/06 09:56:44;;;;;;;2.00;1.27;;;;;;;;;;5058332;28;20186;-66
2022/07/06 09:59:13;;;;;;;1.27;1.10;;;;;;;;;;5076200;28;20181;-67
2022/07/06 10:01:39;;;;;;;4.17;0.93;;;;;;;;;;5058045;28;20237;-67
2022/07/06 10:04:06;;;;;;;1.90;1.30;;;;;;;;;;5076163;28;20257;-66
2022/07/06 10:06:32;;;;;;;1.20;1.10;;;;;;;;;;5058155;28;20178;-66
2022/07/06 10:08:58;;;;;;;2.10;1.00;;;;;;;;;;5058064;28;20668;-67
2022/07/06 10:11:25;;;;;;;2.10;1.13;;;;;;;;;;5057923;28;20186;-66
2022/07/06 10:13:53;;;;;;;1.90;1.10;;;;;;;;;;5075891;28;20177;-67
2022/07/06 10:16:19;;;;;;;2.83;1.20;;;;;;;;;;5076098;28;20206;-66
2022/07/06 10:18:45;;;;;;;1.10;1.00;;;;;;;;;;5075859;28;20646;-66
2022/07/06 10:21:11;;;;;;;2.27;1.10;;;;;;;;;;5075927;28;20202;-67
2022/07/06 10:23:38;;;;;;;2.00;1.10;;;;;;;;;;5057603;28;20243;-68
2022/07/06 10:26:04;;;;;;;6.13;1.20;;;;;;;;;;5057657;28;20231;-67
2022/07/06 10:28:30;;;;;;;2.20;1.30;;;;;;;;;;5076157;28;20174;-65
2022/07/06 10:30:57;;;;;;;2.27;1.30;;;;;;;;;;5076921;28;20216;-64
2022/07/06 10:33:23;;;;;;;1.83;1.27;;;;;;;;;;5057604;28;20271;-67
2022/07/06 10:35:50;;;;;;;2.07;1.13;;;;;;;;;;5057531;28;20327;-67
2022/07/06 10:38:17;;;;;;;3.80;1.27;;;;;;;;;;5075635;28;20634;-67
2022/07/06 10:43:38;;;;;;;1.20;1.10;;;;;;;;;;5075628;28;20262;-66
2022/07/06 10:46:08;;;;;;;1.20;1.10;;;;;;;;;;5075923;28;20173;-66
2022/07/06 10:48:37;;;;;;;1.03;1.00;;;;;;;;;;5075169;28;20182;-67
2022/07/06 10:51:05;;;;;;;1.90;1.23;;;;;;;;;;5056938;28;20181;-67
2022/07/06 10:53:35;;;;;;;2.80;1.90;;;;;;;;;;5075306;28;20201;-67
2022/07/06 10:56:11;;;;;;;1.47;1.20;;;;;;;;;;5075068;28;20181;-67
2022/07/06 10:58:46;;;;;;;1.47;1.30;;;;;;;;;;5057659;28;20202;-66
2022/07/06 11:01:13;;;;;;;2.10;1.20;;;;;;;;;;5056959;28;20201;-65
2022/07/06 11:03:39;;;;;;;3.67;1.10;;;;;;;;;;5074979;28;20256;-67
2022/07/06 11:06:06;;;;;;;1.27;1.17;;;;;;;;;;5057144;28;20174;-67
2022/07/06 11:08:42;;;;;;;2.10;1.30;;;;;;;;;;5056931;28;20687;-67
2022/07/06 11:11:12;;;;;;;1.53;1.27;;;;;;;;;;5056860;28;20184;-67
2022/07/06 11:13:49;;;;;;;2.43;1.20;;;;;;;;;;5074756;28;20178;-66
2022/07/06 11:16:16;;;;;;;2.97;1.27;;;;;;;;;;5056732;28;20646;-66
2022/07/06 11:18:46;;;;;;;3.70;1.47;;;;;;;;;;5074545;28;20178;-66
2022/07/06 11:21:16;;;;;;;1.20;1.10;;;;;;;;;;5074740;28;20251;-66
2022/07/06 11:23:42;;;;;;;1.50;1.20;;;;;;;;;;5074301;28;20200;-66
2022/07/06 11:26:09;;;;;;;1.40;1.30;;;;;;;;;;5074408;28;20227;-66
2022/07/06 11:28:36;;;;;;;1.97;1.30;;;;;;;;;;5074279;28;20582;-67
2022/07/06 11:31:02;;;;;;;2.03;1.30;;;;;;;;;;5056366;28;20185;-66
2022/07/06 11:33:31;;;;;;;3.50;1.60;;;;;;;;;;5074098;28;20251;-66
2022/07/06 11:36:17;;;;;;;2.40;1.10;;;;;;;;;;5074183;28;20641;-66
2022/07/06 11:38:43;;;;;;;2.07;1.50;;;;;;;;;;5074409;28;20178;-66
2022/07/06 11:41:11;;;;;;;1.80;1.13;;;;;;;;;;5073952;28;20736;-66
2022/07/06 11:43:37;;;;;;;1.67;1.10;;;;;;;;;;5074287;28;20302;-67
2022/07/06 11:46:03;;;;;;;1.13;1.03;;;;;;;;;;5074085;28;20219;-66
2022/07/06 11:48:29;;;;;;;1.20;1.03;;;;;;;;;;5056028;28;20562;-66
2022/07/06 11:51:03;;;;;;;1.00;1.00;;;;;;;;;;5073923;28;20200;-67
2022/07/06 11:53:29;;;;;;;1.37;1.20;;;;;;;;;;5074137;28;20197;-66
2022/07/06 11:55:55;;;;;;;1.43;1.00;;;;;;;;;;5055930;28;20228;-66
2022/07/06 11:58:22;;;;;;;1.30;1.20;;;;;;;;;;5055795;28;20265;-66
2022/07/06 12:01:08;;;;;;;1.23;1.10;;;;;;;;;;5055440;28;20220;-67
2022/07/06 12:03:35;;;;;;;2.67;1.20;;;;;;;;;;5073186;28;20289;-66
2022/07/06 12:06:02;;;;;;;3.20;1.20;;;;;;;;;;5055623;28;20596;-66
2022/07/06 12:08:28;;;;;;;1.03;0.93;;;;;;;;;;5055727;28;20174;-67
2022/07/06 12:10:55;;;;;;;1.57;1.27;;;;;;;;;;5073826;28;20178;-66
2022/07/06 12:13:21;;;;;;;1.20;1.10;;;;;;;;;;5073576;28;20676;-67
2022/07/06 12:15:47;;;;;;;2.47;1.10;;;;;;;;;;5073519;28;20688;-67
2022/07/06 12:18:13;;;;;;;2.37;1.10;;;;;;;;;;5060224;28;20185;-67
2022/07/06 12:20:39;;;;;;;1.40;1.20;;;;;;;;;;5055565;28;20704;-66
2022/07/06 12:23:05;;;;;;;2.10;1.40;;;;;;;;;;5055295;28;20213;-66
2022/07/06 12:25:31;;;;;;;1.30;1.20;;;;;;;;;;5055462;28;20189;-65
2022/07/06 12:27:57;;;;;;;2.70;1.53;;;;;;;;;;5055480;28;20178;-67
2022/07/06 12:30:23;;;;;;;1.40;1.30;;;;;;;;;;5073372;28;20239;-66
2022/07/06 12:33:08;;;;;;;1.00;0.97;;;;;;;;;;5073507;28;20673;-64
2022/07/06 12:35:34;;;;;;;1.47;0.97;;;;;;;;;;5055437;28;20633;-66
2022/07/06 12:38:00;;;;;;;1.03;1.00;;;;;;;;;;5073963;28;20170;-66
2022/07/06 12:40:27;;;;;;;1.23;1.00;;;;;;;;;;5055122;28;20692;-67
2022/07/06 12:42:53;;;;;;;4.73;1.30;;;;;;;;;;5055127;28;20193;-66
2022/07/06 12:45:19;;;;;;;2.53;1.00;;;;;;;;;;5073107;28;20250;-67
2022/07/06 12:48:01;;;;;;;1.53;1.40;;;;;;;;;;5073359;28;20195;-67
2022/07/06 12:50:34;;;;;;;1.37;1.10;;;;;;;;;;5054955;28;20193;-66
2022/07/06 12:53:00;;;;;;;1.50;1.23;;;;;;;;;;5073065;28;20277;-67
2022/07/06 12:55:27;;;;;;;4.20;2.07;;;;;;;;;;5073611;28;20246;-66
2022/07/06 12:57:53;;;;;;;1.87;1.50;;;;;;;;;;5073045;28;20188;-64
2022/07/06 13:00:21;;;;;;;2.40;1.23;;;;;;;;;;5054985;28;20274;-67
2022/07/06 13:02:48;;;;;;;1.10;1.10;;;;;;;;;;5073111;28;20219;-66
2022/07/06 13:05:15;;;;;;;1.40;1.30;;;;;;;;;;5072926;28;20170;-66
2022/07/06 13:07:45;;;;;;;1.90;1.20;;;;;;;;;;5073202;28;20254;-67
2022/07/06 13:10:12;;;;;;;3.43;1.20;;;;;;;;;;5054729;28;20178;-68
2022/07/06 13:12:38;;;;;;;1.57;1.20;;;;;;;;;;5073729;28;20217;-66
2022/07/06 13:15:05;;;;;;;2.70;1.10;;;;;;;;;;5077298;28;20529;-67
2022/07/06 13:17:31;;;;;;;5.17;1.60;;;;;;;;;;5076649;28;20208;-67
2022/07/06 13:19:57;;;;;;;1.43;1.30;;;;;;;;;;5058742;28;20182;-67
2022/07/06 13:22:23;;;;;;;1.60;1.13;;;;;;;;;;5076762;28;20213;-65
2022/07/06 13:24:49;;;;;;;1.67;1.20;;;;;;;;;;5058845;28;20212;-65
2022/07/06 13:27:15;;;;;;;1.30;1.20;;;;;;;;;;5058579;28;20209;-67
2022/07/06 13:29:41;;;;;;;1.30;1.20;;;;;;;;;;5058625;28;20552;-67
2022/07/06 13:32:07;;;;;;;1.63;1.23;;;;;;;;;;5076677;28;20197;-67
2022/07/06 13:34:35;;;;;;;1.30;1.20;;;;;;;;;;5058586;28;20182;-67
2022/07/06 13:37:01;;;;;;;2.50;1.17;;;;;;;;;;5076449;28;20550;-67
2022/07/06 13:39:27;;;;;;;1.30;1.20;;;;;;;;;;5076353;28;20616;-67
2022/07/06 13:41:53;;;;;;;1.30;1.00;;;;;;;;;;5076311;28;20209;-67
2022/07/06 13:44:19;;;;;;;1.73;1.20;;;;;;;;;;5076195;28;20669;-67
2022/07/06 13:46:45;;;;;;;1.50;1.10;;;;;;;;;;5076240;28;20174;-67
2022/07/06 13:49:11;;;;;;;2.33;1.37;;;;;;;;;;5076141;28;20634;-67
2022/07/06 13:51:37;;;;;;;2.77;1.50;;;;;;;;;;5076349;28;20731;-66
2022/07/06 13:54:04;;;;;;;1.73;1.30;;;;;;;;;;5058146;28;20182;-65
2022/07/06 13:56:30;;;;;;;1.00;1.00;;;;;;;;;;5058169;28;20216;-66
2022/07/06 13:58:56;;;;;;;1.63;1.20;;;;;;;;;;5075925;28;20603;-67
2022/07/06 14:01:22;;;;;;;2.50;1.20;;;;;;;;;;5075954;28;20202;-66
2022/07/06 14:03:48;;;;;;;1.30;1.20;;;;;;;;;;5075875;28;20215;-67
2022/07/06 14:06:15;;;;;;;1.27;1.17;;;;;;;;;;5075885;28;20643;-66
2022/07/06 14:08:42;;;;;;;1.93;1.27;;;;;;;;;;5076224;28;20166;-65
2022/07/06 14:11:08;;;;;;;1.77;1.27;;;;;;;;;;5075793;28;20186;-67
2022/07/06 14:13:34;;;;;;;3.30;1.30;;;;;;;;;;5075701;28;20193;-67
2022/07/06 14:16:00;;;;;;;2.20;1.10;;;;;;;;;;5075767;28;20181;-66
2022/07/06 14:18:26;;;;;;;1.33;1.00;;;;;;;;;;5057700;28;20187;-67
2022/07/06 14:20:52;;;;;;;1.13;1.03;;;;;;;;;;5076106;28;20198;-66
2022/07/06 14:23:19;;;;;;;1.40;1.07;;;;;;;;;;5075284;28;20213;-67
2022/07/06 14:25:45;;;;;;;2.33;1.37;;;;;;;;;;5056800;28;20344;-67
2022/07/06 14:28:13;;;;;;;1.20;1.00;;;;;;;;;;5075559;28;20746;-67
2022/07/06 14:30:39;;;;;;;0.90;0.90;;;;;;;;;;5075299;28;20563;-67
2022/07/06 14:33:08;;;;;;;2.37;1.50;;;;;;;;;;5075667;28;20203;-66
2022/07/06 14:35:40;;;;;;;1.67;1.23;;;;;;;;;;5075374;28;20178;-67
2022/07/06 14:38:07;;;;;;;1.00;1.00;;;;;;;;;;5076014;28;20173;-67
2022/07/06 14:40:33;;;;;;;2.63;1.30;;;;;;;;;;5057349;28;20202;-64
2022/07/06 14:42:59;;;;;;;1.20;1.10;;;;;;;;;;5057214;28;20229;-66
2022/07/06 14:45:25;;;;;;;1.67;1.13;;;;;;;;;;5075288;28;20173;-66
2022/07/06 14:47:51;;;;;;;1.43;1.10;;;;;;;;;;5075123;28;20174;-66